sensor_id;sensor_type;location;lat;lon;timestamp;P1;durP1;ratioP1;P2;durP2;ratioP2
46751;SDS011;32497;48.936;9.270;2023-04-16T00:01:05;11.80;;;6.07;;
46751;SDS011;32497;48.936;9.270;2023-04-16T00:06:09;13.83;;;6.83;;
46751;SDS011;32497;48.936;9.270;2023-04-16T00:11:10;10.57;;;6.07;;
46751;SDS011;32497;48.936;9.270;2023-04-16T00:16:11;12.47;;;6.67;;
46751;SDS011;32497;48.936;9.270;2023-04-16T00:21:14;14.17;;;6.20;;
46751;SDS011;32497;48.936;9.270;2023-04-16T00:26:15;11.83;;;5.77;;
46751;SDS011;32497;48.936;9.270;2023-04-16T00:31:24;12.13;;;6.10;;
46751;SDS011;32497;48.936;9.270;2023-04-16T00:36:27;10.50;;;5.93;;
46751;SDS011;32497;48.936;9.270;2023-04-16T00:41:29;13.00;;;5.83;;
46751;SDS011;32497;48.936;9.270;2023-04-16T00:46:30;10.43;;;5.37;;
46751;SDS011;32497;48.936;9.270;2023-04-16T00:51:33;11.33;;;5.27;;
46751;SDS011;32497;48.936;9.270;2023-04-16T00:56:35;10.87;;;5.37;;
46751;SDS011;32497;48.936;9.270;2023-04-16T01:01:37;8.87;;;4.87;;
46751;SDS011;32497;48.936;9.270;2023-04-16T01:06:39;8.77;;;5.00;;
46751;SDS011;32497;48.936;9.270;2023-04-16T01:11:40;8.87;;;4.90;;
46751;SDS011;32497;48.936;9.270;2023-04-16T01:16:41;8.70;;;4.73;;
46751;SDS011;32497;48.936;9.270;2023-04-16T01:21:44;10.00;;;4.27;;
46751;SDS011;32497;48.936;9.270;2023-04-16T01:26:45;8.77;;;4.40;;
46751;SDS011;32497;48.936;9.270;2023-04-16T01:31:46;8.80;;;4.63;;
46751;SDS011;32497;48.936;9.270;2023-04-16T01:36:57;8.90;;;4.23;;
46751;SDS011;32497;48.936;9.270;2023-04-16T01:41:58;8.67;;;4.20;;
46751;SDS011;32497;48.936;9.270;2023-04-16T01:46:59;7.70;;;4.73;;
46751;SDS011;32497;48.936;9.270;2023-04-16T01:52:01;8.70;;;4.83;;
46751;SDS011;32497;48.936;9.270;2023-04-16T01:57:03;6.63;;;3.97;;
46751;SDS011;32497;48.936;9.270;2023-04-16T02:02:06;8.57;;;4.27;;
46751;SDS011;32497;48.936;9.270;2023-04-16T02:07:11;9.20;;;4.07;;
46751;SDS011;32497;48.936;9.270;2023-04-16T02:12:12;11.13;;;4.27;;
46751;SDS011;32497;48.936;9.270;2023-04-16T02:17:14;12.90;;;3.97;;
46751;SDS011;32497;48.936;9.270;2023-04-16T02:22:18;10.07;;;4.23;;
46751;SDS011;32497;48.936;9.270;2023-04-16T02:27:19;9.07;;;4.80;;
46751;SDS011;32497;48.936;9.270;2023-04-16T02:32:23;8.17;;;4.30;;
46751;SDS011;32497;48.936;9.270;2023-04-16T02:37:26;9.20;;;4.67;;
46751;SDS011;32497;48.936;9.270;2023-04-16T02:42:27;9.00;;;4.37;;
46751;SDS011;32497;48.936;9.270;2023-04-16T02:47:28;11.43;;;5.10;;
46751;SDS011;32497;48.936;9.270;2023-04-16T02:52:31;11.83;;;4.90;;
46751;SDS011;32497;48.936;9.270;2023-04-16T02:57:32;10.10;;;5.00;;
46751;SDS011;32497;48.936;9.270;2023-04-16T03:02:33;10.43;;;5.00;;
46751;SDS011;32497;48.936;9.270;2023-04-16T03:07:35;11.53;;;5.67;;
46751;SDS011;32497;48.936;9.270;2023-04-16T03:12:37;11.23;;;5.67;;
46751;SDS011;32497;48.936;9.270;2023-04-16T03:17:40;12.07;;;5.90;;
46751;SDS011;32497;48.936;9.270;2023-04-16T03:22:44;12.10;;;5.60;;
46751;SDS011;32497;48.936;9.270;2023-04-16T03:27:46;14.27;;;6.53;;
46751;SDS011;32497;48.936;9.270;2023-04-16T03:32:49;11.10;;;5.53;;
46751;SDS011;32497;48.936;9.270;2023-04-16T03:37:52;11.30;;;5.73;;
46751;SDS011;32497;48.936;9.270;2023-04-16T03:42:53;13.07;;;5.87;;
46751;SDS011;32497;48.936;9.270;2023-04-16T03:47:54;11.43;;;5.97;;
46751;SDS011;32497;48.936;9.270;2023-04-16T03:53:00;11.87;;;6.00;;
46751;SDS011;32497;48.936;9.270;2023-04-16T03:58:02;10.50;;;5.70;;
46751;SDS011;32497;48.936;9.270;2023-04-16T04:03:05;11.67;;;6.00;;
46751;SDS011;32497;48.936;9.270;2023-04-16T04:08:09;11.43;;;5.80;;
46751;SDS011;32497;48.936;9.270;2023-04-16T04:13:11;11.03;;;5.93;;
46751;SDS011;32497;48.936;9.270;2023-04-16T04:18:12;12.73;;;5.27;;
46751;SDS011;32497;48.936;9.270;2023-04-16T04:23:15;12.67;;;5.73;;
46751;SDS011;32497;48.936;9.270;2023-04-16T04:28:16;10.50;;;5.73;;
46751;SDS011;32497;48.936;9.270;2023-04-16T04:33:17;12.53;;;6.00;;
46751;SDS011;32497;48.936;9.270;2023-04-16T04:38:20;11.93;;;6.27;;
46751;SDS011;32497;48.936;9.270;2023-04-16T04:43:22;10.60;;;5.37;;
46751;SDS011;32497;48.936;9.270;2023-04-16T04:48:24;12.50;;;6.20;;
46751;SDS011;32497;48.936;9.270;2023-04-16T04:53:26;13.40;;;6.10;;
46751;SDS011;32497;48.936;9.270;2023-04-16T04:58:28;12.47;;;6.03;;
46751;SDS011;32497;48.936;9.270;2023-04-16T05:03:30;15.13;;;7.00;;
46751;SDS011;32497;48.936;9.270;2023-04-16T05:08:33;15.73;;;7.60;;
46751;SDS011;32497;48.936;9.270;2023-04-16T05:13:34;16.17;;;7.40;;
46751;SDS011;32497;48.936;9.270;2023-04-16T05:18:35;15.80;;;7.80;;
46751;SDS011;32497;48.936;9.270;2023-04-16T05:23:37;19.07;;;8.40;;
46751;SDS011;32497;48.936;9.270;2023-04-16T05:28:38;17.23;;;7.97;;
46751;SDS011;32497;48.936;9.270;2023-04-16T05:33:39;22.53;;;8.50;;
46751;SDS011;32497;48.936;9.270;2023-04-16T05:38:42;19.10;;;8.60;;
46751;SDS011;32497;48.936;9.270;2023-04-16T05:43:43;18.60;;;8.77;;
46751;SDS011;32497;48.936;9.270;2023-04-16T05:48:44;18.10;;;7.87;;
46751;SDS011;32497;48.936;9.270;2023-04-16T05:53:47;18.27;;;8.63;;
46751;SDS011;32497;48.936;9.270;2023-04-16T05:58:48;17.87;;;8.73;;
46751;SDS011;32497;48.936;9.270;2023-04-16T06:03:49;16.77;;;8.40;;
46751;SDS011;32497;48.936;9.270;2023-04-16T06:08:51;21.07;;;8.83;;
46751;SDS011;32497;48.936;9.270;2023-04-16T06:13:52;19.17;;;8.30;;
46751;SDS011;32497;48.936;9.270;2023-04-16T06:18:53;19.53;;;9.00;;
46751;SDS011;32497;48.936;9.270;2023-04-16T06:23:56;19.83;;;8.80;;
46751;SDS011;32497;48.936;9.270;2023-04-16T06:28:57;19.30;;;8.63;;
46751;SDS011;32497;48.936;9.270;2023-04-16T06:33:58;19.13;;;8.47;;
46751;SDS011;32497;48.936;9.270;2023-04-16T06:39:00;18.60;;;8.37;;
46751;SDS011;32497;48.936;9.270;2023-04-16T06:44:01;19.90;;;9.03;;
46751;SDS011;32497;48.936;9.270;2023-04-16T06:49:03;21.20;;;8.90;;
46751;SDS011;32497;48.936;9.270;2023-04-16T06:54:05;20.43;;;9.67;;
46751;SDS011;32497;48.936;9.270;2023-04-16T06:59:24;19.07;;;8.57;;
46751;SDS011;32497;48.936;9.270;2023-04-16T07:04:25;18.97;;;8.10;;
46751;SDS011;32497;48.936;9.270;2023-04-16T07:09:48;21.37;;;8.93;;
46751;SDS011;32497;48.936;9.270;2023-04-16T07:20:47;19.63;;;8.13;;
46751;SDS011;32497;48.936;9.270;2023-04-16T07:25:55;17.20;;;7.80;;
46751;SDS011;32497;48.936;9.270;2023-04-16T07:30:56;19.77;;;8.60;;
46751;SDS011;32497;48.936;9.270;2023-04-16T07:36:12;20.10;;;8.90;;
46751;SDS011;32497;48.936;9.270;2023-04-16T07:41:15;19.83;;;7.73;;
46751;SDS011;32497;48.936;9.270;2023-04-16T07:46:16;16.57;;;7.63;;
46751;SDS011;32497;48.936;9.270;2023-04-16T07:51:23;16.73;;;7.47;;
46751;SDS011;32497;48.936;9.270;2023-04-16T08:07:52;16.23;;;7.43;;
46751;SDS011;32497;48.936;9.270;2023-04-16T08:35:37;16.47;;;6.73;;
46751;SDS011;32497;48.936;9.270;2023-04-16T08:46:08;16.17;;;7.43;;
46751;SDS011;32497;48.936;9.270;2023-04-16T09:01:56;15.23;;;7.17;;
46751;SDS011;32497;48.936;9.270;2023-04-16T09:07:12;13.37;;;7.20;;
46751;SDS011;32497;48.936;9.270;2023-04-16T09:24:23;14.87;;;7.10;;
46751;SDS011;32497;48.936;9.270;2023-04-16T09:35:44;13.93;;;6.70;;
46751;SDS011;32497;48.936;9.270;2023-04-16T09:40:48;14.63;;;6.77;;
46751;SDS011;32497;48.936;9.270;2023-04-16T09:46:05;15.13;;;6.60;;
46751;SDS011;32497;48.936;9.270;2023-04-16T09:51:10;12.00;;;6.43;;
46751;SDS011;32497;48.936;9.270;2023-04-16T09:56:12;15.10;;;7.20;;
46751;SDS011;32497;48.936;9.270;2023-04-16T10:01:13;12.70;;;6.30;;
46751;SDS011;32497;48.936;9.270;2023-04-16T10:06:18;14.97;;;6.87;;
46751;SDS011;32497;48.936;9.270;2023-04-16T10:11:21;14.17;;;6.97;;
46751;SDS011;32497;48.936;9.270;2023-04-16T10:16:22;16.70;;;7.03;;
46751;SDS011;32497;48.936;9.270;2023-04-16T10:21:24;17.17;;;7.33;;
46751;SDS011;32497;48.936;9.270;2023-04-16T10:26:27;16.07;;;7.00;;
46751;SDS011;32497;48.936;9.270;2023-04-16T10:31:29;17.43;;;7.83;;
46751;SDS011;32497;48.936;9.270;2023-04-16T10:36:33;16.60;;;7.37;;
46751;SDS011;32497;48.936;9.270;2023-04-16T10:41:37;15.00;;;7.20;;
46751;SDS011;32497;48.936;9.270;2023-04-16T10:46:39;18.07;;;7.50;;
46751;SDS011;32497;48.936;9.270;2023-04-16T10:51:41;15.90;;;7.37;;
46751;SDS011;32497;48.936;9.270;2023-04-16T10:56:44;14.47;;;6.73;;
46751;SDS011;32497;48.936;9.270;2023-04-16T11:01:47;14.73;;;6.43;;
46751;SDS011;32497;48.936;9.270;2023-04-16T11:06:59;14.60;;;6.17;;
46751;SDS011;32497;48.936;9.270;2023-04-16T11:12:02;11.93;;;5.97;;
46751;SDS011;32497;48.936;9.270;2023-04-16T11:17:08;13.97;;;5.60;;
46751;SDS011;32497;48.936;9.270;2023-04-16T11:22:11;13.50;;;6.13;;
46751;SDS011;32497;48.936;9.270;2023-04-16T11:27:14;12.43;;;5.07;;
46751;SDS011;32497;48.936;9.270;2023-04-16T11:32:19;8.27;;;4.83;;
46751;SDS011;32497;48.936;9.270;2023-04-16T11:37:20;9.40;;;4.67;;
46751;SDS011;32497;48.936;9.270;2023-04-16T11:42:33;7.87;;;4.27;;
46751;SDS011;32497;48.936;9.270;2023-04-16T11:47:41;9.73;;;4.67;;
46751;SDS011;32497;48.936;9.270;2023-04-16T11:52:43;12.40;;;5.00;;
46751;SDS011;32497;48.936;9.270;2023-04-16T11:57:46;7.33;;;3.87;;
46751;SDS011;32497;48.936;9.270;2023-04-16T12:02:48;9.30;;;4.30;;
46751;SDS011;32497;48.936;9.270;2023-04-16T12:07:50;12.53;;;4.20;;
46751;SDS011;32497;48.936;9.270;2023-04-16T12:12:53;10.77;;;4.27;;
46751;SDS011;32497;48.936;9.270;2023-04-16T12:18:05;9.50;;;4.30;;
46751;SDS011;32497;48.936;9.270;2023-04-16T12:23:06;7.93;;;4.00;;
46751;SDS011;32497;48.936;9.270;2023-04-16T12:28:09;9.17;;;4.13;;
46751;SDS011;32497;48.936;9.270;2023-04-16T12:33:13;9.00;;;4.50;;
46751;SDS011;32497;48.936;9.270;2023-04-16T12:38:15;9.60;;;4.60;;
46751;SDS011;32497;48.936;9.270;2023-04-16T12:43:19;7.03;;;3.77;;
46751;SDS011;32497;48.936;9.270;2023-04-16T12:48:20;7.97;;;4.00;;
46751;SDS011;32497;48.936;9.270;2023-04-16T12:53:21;8.53;;;4.17;;
46751;SDS011;32497;48.936;9.270;2023-04-16T12:58:24;10.87;;;4.50;;
46751;SDS011;32497;48.936;9.270;2023-04-16T13:03:26;9.13;;;4.60;;
46751;SDS011;32497;48.936;9.270;2023-04-16T13:08:27;7.33;;;4.23;;
46751;SDS011;32497;48.936;9.270;2023-04-16T13:13:29;9.90;;;4.17;;
46751;SDS011;32497;48.936;9.270;2023-04-16T13:18:31;7.67;;;4.17;;
46751;SDS011;32497;48.936;9.270;2023-04-16T13:23:33;9.40;;;5.00;;
46751;SDS011;32497;48.936;9.270;2023-04-16T13:28:35;10.40;;;4.80;;
46751;SDS011;32497;48.936;9.270;2023-04-16T13:33:37;10.53;;;4.93;;
46751;SDS011;32497;48.936;9.270;2023-04-16T13:38:38;10.87;;;5.00;;
46751;SDS011;32497;48.936;9.270;2023-04-16T13:43:40;9.97;;;4.83;;
46751;SDS011;32497;48.936;9.270;2023-04-16T13:48:41;9.20;;;4.63;;
46751;SDS011;32497;48.936;9.270;2023-04-16T13:53:42;9.43;;;5.37;;
46751;SDS011;32497;48.936;9.270;2023-04-16T13:58:45;9.87;;;4.93;;
46751;SDS011;32497;48.936;9.270;2023-04-16T14:03:46;9.60;;;5.07;;
46751;SDS011;32497;48.936;9.270;2023-04-16T14:08:48;10.03;;;5.47;;
46751;SDS011;32497;48.936;9.270;2023-04-16T14:13:50;11.80;;;5.53;;
46751;SDS011;32497;48.936;9.270;2023-04-16T14:18:52;12.13;;;6.50;;
46751;SDS011;32497;48.936;9.270;2023-04-16T14:23:53;11.83;;;6.07;;
46751;SDS011;32497;48.936;9.270;2023-04-16T14:28:55;10.03;;;5.93;;
46751;SDS011;32497;48.936;9.270;2023-04-16T14:33:56;9.90;;;5.30;;
46751;SDS011;32497;48.936;9.270;2023-04-16T14:38:57;13.10;;;5.87;;
46751;SDS011;32497;48.936;9.270;2023-04-16T14:44:00;13.27;;;5.93;;
46751;SDS011;32497;48.936;9.270;2023-04-16T14:49:01;13.17;;;6.13;;
46751;SDS011;32497;48.936;9.270;2023-04-16T14:54:02;16.87;;;6.97;;
46751;SDS011;32497;48.936;9.270;2023-04-16T14:59:05;13.37;;;6.50;;
46751;SDS011;32497;48.936;9.270;2023-04-16T15:04:06;15.10;;;6.93;;
46751;SDS011;32497;48.936;9.270;2023-04-16T15:09:07;17.97;;;7.30;;
46751;SDS011;32497;48.936;9.270;2023-04-16T15:14:10;15.57;;;7.40;;
46751;SDS011;32497;48.936;9.270;2023-04-16T15:19:11;13.63;;;6.93;;
46751;SDS011;32497;48.936;9.270;2023-04-16T15:24:12;15.17;;;7.97;;
46751;SDS011;32497;48.936;9.270;2023-04-16T15:29:14;16.47;;;8.30;;
46751;SDS011;32497;48.936;9.270;2023-04-16T15:34:15;17.37;;;7.80;;
46751;SDS011;32497;48.936;9.270;2023-04-16T15:39:17;17.30;;;8.10;;
46751;SDS011;32497;48.936;9.270;2023-04-16T15:44:19;20.63;;;9.30;;
46751;SDS011;32497;48.936;9.270;2023-04-16T15:49:20;16.77;;;8.10;;
46751;SDS011;32497;48.936;9.270;2023-04-16T15:54:21;16.77;;;9.13;;
46751;SDS011;32497;48.936;9.270;2023-04-16T15:59:24;17.77;;;8.63;;
46751;SDS011;32497;48.936;9.270;2023-04-16T16:04:25;20.80;;;10.30;;
46751;SDS011;32497;48.936;9.270;2023-04-16T16:09:27;20.43;;;9.23;;
46751;SDS011;32497;48.936;9.270;2023-04-16T16:14:29;21.67;;;10.07;;
46751;SDS011;32497;48.936;9.270;2023-04-16T16:19:31;19.43;;;9.20;;
46751;SDS011;32497;48.936;9.270;2023-04-16T16:24:32;20.20;;;9.37;;
46751;SDS011;32497;48.936;9.270;2023-04-16T16:29:34;20.23;;;9.57;;
46751;SDS011;32497;48.936;9.270;2023-04-16T16:34:35;17.80;;;8.77;;
46751;SDS011;32497;48.936;9.270;2023-04-16T16:39:36;20.83;;;9.53;;
46751;SDS011;32497;48.936;9.270;2023-04-16T16:44:39;22.63;;;9.70;;
46751;SDS011;32497;48.936;9.270;2023-04-16T16:49:40;18.83;;;9.30;;
46751;SDS011;32497;48.936;9.270;2023-04-16T16:54:41;20.83;;;8.70;;
46751;SDS011;32497;48.936;9.270;2023-04-16T16:59:43;19.83;;;8.67;;
46751;SDS011;32497;48.936;9.270;2023-04-16T17:04:45;18.17;;;9.13;;
46751;SDS011;32497;48.936;9.270;2023-04-16T17:09:46;17.53;;;9.17;;
46751;SDS011;32497;48.936;9.270;2023-04-16T17:14:49;17.77;;;8.43;;
46751;SDS011;32497;48.936;9.270;2023-04-16T17:19:50;20.07;;;9.30;;
46751;SDS011;32497;48.936;9.270;2023-04-16T17:24:52;20.30;;;8.90;;
46751;SDS011;32497;48.936;9.270;2023-04-16T17:29:54;17.27;;;8.67;;
46751;SDS011;32497;48.936;9.270;2023-04-16T17:34:55;20.77;;;9.40;;
46751;SDS011;32497;48.936;9.270;2023-04-16T17:39:56;18.23;;;9.13;;
46751;SDS011;32497;48.936;9.270;2023-04-16T17:44:59;20.30;;;9.63;;
46751;SDS011;32497;48.936;9.270;2023-04-16T17:50:00;19.00;;;9.17;;
46751;SDS011;32497;48.936;9.270;2023-04-16T17:55:01;19.00;;;9.87;;
46751;SDS011;32497;48.936;9.270;2023-04-16T18:00:04;17.90;;;9.30;;
46751;SDS011;32497;48.936;9.270;2023-04-16T18:05:12;22.07;;;9.90;;
46751;SDS011;32497;48.936;9.270;2023-04-16T18:10:13;19.60;;;9.57;;
46751;SDS011;32497;48.936;9.270;2023-04-16T18:15:15;24.90;;;11.10;;
46751;SDS011;32497;48.936;9.270;2023-04-16T18:20:16;19.20;;;9.47;;
46751;SDS011;32497;48.936;9.270;2023-04-16T18:25:18;16.60;;;9.33;;
46751;SDS011;32497;48.936;9.270;2023-04-16T18:30:20;17.53;;;8.53;;
46751;SDS011;32497;48.936;9.270;2023-04-16T18:35:21;18.63;;;9.57;;
46751;SDS011;32497;48.936;9.270;2023-04-16T18:40:22;15.97;;;9.07;;
46751;SDS011;32497;48.936;9.270;2023-04-16T18:45:25;18.03;;;9.20;;
46751;SDS011;32497;48.936;9.270;2023-04-16T18:50:26;18.90;;;9.90;;
46751;SDS011;32497;48.936;9.270;2023-04-16T18:55:27;17.33;;;8.60;;
46751;SDS011;32497;48.936;9.270;2023-04-16T19:00:30;16.37;;;8.63;;
46751;SDS011;32497;48.936;9.270;2023-04-16T19:05:31;17.77;;;8.90;;
46751;SDS011;32497;48.936;9.270;2023-04-16T19:10:32;17.13;;;9.13;;
46751;SDS011;32497;48.936;9.270;2023-04-16T19:15:35;17.80;;;8.90;;
46751;SDS011;32497;48.936;9.270;2023-04-16T19:20:36;16.33;;;8.67;;
46751;SDS011;32497;48.936;9.270;2023-04-16T19:25:38;18.53;;;8.70;;
46751;SDS011;32497;48.936;9.270;2023-04-16T19:30:41;16.70;;;7.83;;
46751;SDS011;32497;48.936;9.270;2023-04-16T19:35:42;16.83;;;8.50;;
46751;SDS011;32497;48.936;9.270;2023-04-16T19:40:44;18.30;;;8.80;;
46751;SDS011;32497;48.936;9.270;2023-04-16T19:45:47;16.87;;;8.57;;
46751;SDS011;32497;48.936;9.270;2023-04-16T19:50:49;16.20;;;8.83;;
46751;SDS011;32497;48.936;9.270;2023-04-16T19:55:50;16.37;;;8.60;;
46751;SDS011;32497;48.936;9.270;2023-04-16T20:00:53;17.80;;;9.03;;
46751;SDS011;32497;48.936;9.270;2023-04-16T20:05:54;16.80;;;9.10;;
46751;SDS011;32497;48.936;9.270;2023-04-16T20:10:57;15.33;;;8.37;;
46751;SDS011;32497;48.936;9.270;2023-04-16T20:15:59;15.97;;;8.10;;
46751;SDS011;32497;48.936;9.270;2023-04-16T20:21:02;16.27;;;8.13;;
46751;SDS011;32497;48.936;9.270;2023-04-16T20:26:03;15.40;;;8.00;;
46751;SDS011;32497;48.936;9.270;2023-04-16T20:31:05;13.67;;;6.90;;
46751;SDS011;32497;48.936;9.270;2023-04-16T20:36:06;14.03;;;6.93;;
46751;SDS011;32497;48.936;9.270;2023-04-16T20:41:07;11.67;;;7.07;;
46751;SDS011;32497;48.936;9.270;2023-04-16T20:46:10;13.87;;;6.90;;
46751;SDS011;32497;48.936;9.270;2023-04-16T20:51:12;12.60;;;6.90;;
46751;SDS011;32497;48.936;9.270;2023-04-16T20:56:13;12.27;;;6.57;;
46751;SDS011;32497;48.936;9.270;2023-04-16T21:01:15;13.77;;;6.53;;
46751;SDS011;32497;48.936;9.270;2023-04-16T21:06:16;10.60;;;6.07;;
46751;SDS011;32497;48.936;9.270;2023-04-16T21:11:17;11.20;;;6.43;;
46751;SDS011;32497;48.936;9.270;2023-04-16T21:16:20;11.87;;;6.20;;
46751;SDS011;32497;48.936;9.270;2023-04-16T21:21:21;11.77;;;6.20;;
46751;SDS011;32497;48.936;9.270;2023-04-16T21:26:22;10.57;;;6.47;;
46751;SDS011;32497;48.936;9.270;2023-04-16T21:31:24;12.30;;;6.70;;
46751;SDS011;32497;48.936;9.270;2023-04-16T21:36:26;10.50;;;6.00;;
46751;SDS011;32497;48.936;9.270;2023-04-16T21:41:27;12.40;;;6.50;;
46751;SDS011;32497;48.936;9.270;2023-04-16T21:46:29;11.73;;;6.47;;
46751;SDS011;32497;48.936;9.270;2023-04-16T21:51:30;10.97;;;6.17;;
46751;SDS011;32497;48.936;9.270;2023-04-16T21:56:31;12.77;;;6.37;;
46751;SDS011;32497;48.936;9.270;2023-04-16T22:01:34;11.50;;;6.10;;
46751;SDS011;32497;48.936;9.270;2023-04-16T22:06:35;13.30;;;6.40;;
46751;SDS011;32497;48.936;9.270;2023-04-16T22:11:36;10.80;;;6.00;;
46751;SDS011;32497;48.936;9.270;2023-04-16T22:16:38;13.57;;;6.70;;
46751;SDS011;32497;48.936;9.270;2023-04-16T22:21:39;13.43;;;6.40;;
46751;SDS011;32497;48.936;9.270;2023-04-16T22:26:40;13.90;;;6.83;;
46751;SDS011;32497;48.936;9.270;2023-04-16T22:31:43;11.07;;;6.13;;
46751;SDS011;32497;48.936;9.270;2023-04-16T22:36:44;13.70;;;6.50;;
46751;SDS011;32497;48.936;9.270;2023-04-16T22:41:45;12.17;;;6.23;;
46751;SDS011;32497;48.936;9.270;2023-04-16T22:46:47;12.63;;;6.50;;
46751;SDS011;32497;48.936;9.270;2023-04-16T22:51:49;11.43;;;6.37;;
46751;SDS011;32497;48.936;9.270;2023-04-16T22:56:50;14.27;;;6.10;;
46751;SDS011;32497;48.936;9.270;2023-04-16T23:01:52;9.63;;;5.63;;
46751;SDS011;32497;48.936;9.270;2023-04-16T23:06:53;13.17;;;5.83;;
46751;SDS011;32497;48.936;9.270;2023-04-16T23:11:54;10.07;;;6.40;;
46751;SDS011;32497;48.936;9.270;2023-04-16T23:16:57;12.17;;;6.40;;
46751;SDS011;32497;48.936;9.270;2023-04-16T23:21:58;13.30;;;6.20;;
46751;SDS011;32497;48.936;9.270;2023-04-16T23:26:59;10.27;;;5.73;;
46751;SDS011;32497;48.936;9.270;2023-04-16T23:32:01;10.87;;;6.17;;
46751;SDS011;32497;48.936;9.270;2023-04-16T23:37:03;12.50;;;5.50;;
46751;SDS011;32497;48.936;9.270;2023-04-16T23:42:04;11.90;;;6.23;;
46751;SDS011;32497;48.936;9.270;2023-04-16T23:47:06;11.37;;;5.97;;
46751;SDS011;32497;48.936;9.270;2023-04-16T23:52:07;11.93;;;6.03;;
46751;SDS011;32497;48.936;9.270;2023-04-16T23:57:08;11.30;;;6.27;;
